createdAt,value
2022-09-06T00:00:04.853Z,101022.53
2022-09-06T00:00:51.755Z,101014.78
2022-09-06T00:01:25.877Z,101032.38
2022-09-06T00:02:12.747Z,101017.09
2022-09-06T00:02:47.856Z,101013.50
2022-09-06T00:03:27.793Z,101032.84
2022-09-06T00:04:10.714Z,101033.69
2022-09-06T00:04:55.743Z,101010.78
2022-09-06T00:05:37.884Z,101031.44
2022-09-06T00:06:21.724Z,101033.84
2022-09-06T00:07:01.781Z,101033.16
2022-09-06T00:07:42.716Z,101027.44
2022-09-06T00:08:22.842Z,101028.56
2022-09-06T00:09:02.751Z,101026.97
2022-09-06T00:09:42.840Z,101031.13
2022-09-06T00:10:23.773Z,101021.53
2022-09-06T00:11:04.885Z,101000.63
2022-09-06T00:11:45.735Z,101023.97
2022-09-06T00:12:25.836Z,101013.94
2022-09-06T00:13:14.722Z,101018.81
2022-09-06T00:13:55.801Z,101024.56
2022-09-06T00:14:35.770Z,101012.78
2022-09-06T00:15:16.769Z,101021.53
2022-09-06T00:15:57.802Z,101008.81
2022-09-06T00:16:40.654Z,101017.25
2022-09-06T00:17:20.733Z,101029.13
2022-09-06T00:18:00.843Z,101024.25
2022-09-06T00:18:40.744Z,101002.19
2022-09-06T00:19:20.849Z,101019.53
2022-09-06T00:20:01.778Z,101012.97
2022-09-06T00:20:44.773Z,101025.84
2022-09-06T00:21:27.722Z,101016.97
2022-09-06T00:22:07.830Z,101021.84
2022-09-06T00:22:48.733Z,101028.56
2022-09-06T00:23:28.796Z,101020.41
2022-09-06T00:24:10.709Z,101006.22
2022-09-06T00:24:50.774Z,101021.53
2022-09-06T00:25:31.758Z,101018.25
2022-09-06T00:26:25.726Z,101022.69
2022-09-06T00:27:21.719Z,101023.66
2022-09-06T00:28:19.693Z,101018.09
2022-09-06T00:29:13.750Z,101029.69
2022-09-06T00:30:07.718Z,101026.25
2022-09-06T00:30:54.763Z,101023.13
2022-09-06T00:31:32.688Z,101018.41
2022-09-06T00:32:19.712Z,101013.97
2022-09-06T00:32:53.769Z,101025.13
2022-09-06T00:33:40.724Z,101016.22
2022-09-06T00:34:14.768Z,101023.13
2022-09-06T00:35:01.711Z,101020.13
2022-09-06T00:35:35.786Z,101018.69
2022-09-06T00:36:17.805Z,101026.56
2022-09-06T00:36:57.800Z,101019.84
2022-09-06T00:37:38.725Z,101022.97
2022-09-06T00:38:18.754Z,101020.53
2022-09-06T00:38:58.693Z,101020.84
2022-09-06T00:39:38.820Z,101010.38
2022-09-06T00:40:19.717Z,101021.28
2022-09-06T00:40:59.810Z,101014.09
2022-09-06T00:41:39.732Z,101015.84
2022-09-06T00:42:20.799Z,101015.81
2022-09-06T00:43:02.699Z,101006.03
2022-09-06T00:43:42.851Z,101010.81
2022-09-06T00:44:22.701Z,101009.09
2022-09-06T00:45:02.848Z,101018.13
2022-09-06T00:45:42.684Z,101015.66
2022-09-06T00:46:29.778Z,101016.91
2022-09-06T00:47:10.739Z,101018.81
2022-09-06T00:47:50.741Z,101002.47
2022-09-06T00:48:31.730Z,101017.06
2022-09-06T00:49:24.314Z,101016.78
2022-09-06T00:50:06.705Z,100996.16
2022-09-06T00:50:46.879Z,101008.78
2022-09-06T00:51:28.720Z,101008.19
2022-09-06T00:52:18.720Z,101007.75
2022-09-06T00:53:12.694Z,101015.63
2022-09-06T00:54:06.678Z,101010.19
2022-09-06T00:55:01.736Z,101002.47
2022-09-06T00:55:56.709Z,100999.16
2022-09-06T00:56:55.717Z,100991.00
2022-09-06T00:57:42.725Z,101006.47
2022-09-06T00:58:16.766Z,101005.03
2022-09-06T00:59:03.685Z,101011.91
2022-09-06T00:59:39.754Z,101009.63
2022-09-06T01:00:27.683Z,101007.91
2022-09-06T01:01:01.884Z,101008.88
2022-09-06T01:01:49.774Z,101003.75
2022-09-06T01:02:23.955Z,100993.88
2022-09-06T01:03:04.708Z,101002.59
2022-09-06T01:03:38.633Z,100988.72
2022-09-06T01:04:26.705Z,100992.28
2022-09-06T01:05:00.564Z,101002.72
2022-09-06T01:06:16.704Z,101009.91
2022-09-06T01:07:17.920Z,101000.91
2022-09-06T01:08:39.739Z,101010.19
2022-09-06T01:09:58.948Z,101002.03
2022-09-06T01:11:09.681Z,101007.75
2022-09-06T01:12:20.361Z,101004.03
2022-09-06T01:14:02.738Z,100988.56
2022-09-06T01:15:14.735Z,100992.28
2022-09-06T01:16:37.716Z,100996.00
2022-09-06T01:17:35.107Z,100991.41
2022-09-06T01:18:45.688Z,100994.84
2022-09-06T01:19:58.747Z,100988.41
2022-09-06T01:21:14.809Z,100982.38
2022-09-06T01:22:28.678Z,100978.38
2022-09-06T01:23:22.720Z,100960.31
2022-09-06T01:24:20.691Z,100993.22
2022-09-06T01:25:26.713Z,100992.63
2022-09-06T01:26:22.255Z,100992.78
2022-09-06T01:27:24.653Z,100991.19
2022-09-06T01:28:31.152Z,100985.50
2022-09-06T01:29:46.698Z,100994.09
2022-09-06T01:30:21.190Z,100987.50
2022-09-06T01:31:42.714Z,100972.59
2022-09-06T01:32:57.781Z,100977.47
2022-09-06T01:34:03.682Z,100994.53
2022-09-06T01:34:58.833Z,100994.25
2022-09-06T01:35:54.678Z,100977.75
2022-09-06T01:37:10.362Z,100989.00
2022-09-06T01:38:04.670Z,100985.84
2022-09-06T01:38:58.659Z,100986.88
2022-09-06T01:39:54.689Z,100992.91
2022-09-06T01:40:48.673Z,100982.28
2022-09-06T01:41:43.654Z,100977.16
2022-09-06T01:42:33.696Z,100988.91
2022-09-06T01:43:10.802Z,100969.13
2022-09-06T01:43:58.649Z,100990.88
2022-09-06T01:44:34.710Z,100974.44
2022-09-06T01:45:24.831Z,100981.63
2022-09-06T01:46:33.750Z,100988.91
2022-09-06T01:47:41.674Z,100991.19
2022-09-06T01:48:31.788Z,100980.56
2022-09-06T01:49:39.640Z,100985.28
2022-09-06T01:50:22.861Z,100991.72
2022-09-06T01:51:29.629Z,100969.09
2022-09-06T01:52:15.034Z,100967.38
2022-09-06T01:53:50.686Z,100967.09
2022-09-06T01:54:35.754Z,100980.97
2022-09-06T01:55:29.693Z,100976.41
2022-09-06T01:56:53.690Z,100973.69
2022-09-06T01:58:01.701Z,100971.97
2022-09-06T01:59:10.674Z,100977.16
2022-09-06T02:00:19.649Z,100977.41
2022-09-06T02:01:41.706Z,100971.66
2022-09-06T02:02:55.693Z,100974.94
2022-09-06T02:04:07.618Z,100973.34
2022-09-06T02:05:03.643Z,100963.00
2022-09-06T02:05:52.669Z,100982.88
2022-09-06T02:06:39.645Z,100983.00
2022-09-06T02:07:33.758Z,100974.75
2022-09-06T02:08:19.640Z,100970.72
2022-09-06T02:09:22.730Z,100978.75
2022-09-06T02:10:32.641Z,100984.47
2022-09-06T02:11:15.669Z,100974.41
2022-09-06T02:12:03.610Z,100966.88
2022-09-06T02:12:47.733Z,100967.16
2022-09-06T02:13:29.625Z,100979.19
2022-09-06T02:14:15.678Z,100956.63
2022-09-06T02:15:11.617Z,100978.41
2022-09-06T02:15:58.666Z,100968.09
2022-09-06T02:16:34.693Z,100963.38
2022-09-06T02:17:25.612Z,100978.94
2022-09-06T02:18:10.698Z,100971.50
2022-09-06T02:19:19.597Z,100981.25
2022-09-06T02:20:05.867Z,100974.38
2022-09-06T02:20:58.657Z,100979.25
2022-09-06T02:21:40.089Z,100973.22
2022-09-06T02:22:29.615Z,100976.69
2022-09-06T02:23:05.661Z,100970.97
2022-09-06T02:23:53.601Z,100981.56
2022-09-06T02:24:38.755Z,100976.84
2022-09-06T02:25:34.629Z,100955.22
2022-09-06T02:26:51.649Z,100977.25
2022-09-06T02:27:46.600Z,100972.69
2022-09-06T02:28:40.606Z,100964.06
2022-09-06T02:29:34.595Z,100980.38
2022-09-06T02:30:28.650Z,100978.19
2022-09-06T02:31:39.606Z,100976.34
2022-09-06T02:32:29.614Z,100977.50
2022-09-06T02:33:16.657Z,100965.16
2022-09-06T02:33:57.605Z,100978.03
2022-09-06T02:34:37.666Z,100969.59
2022-09-06T02:35:21.589Z,100971.44
2022-09-06T02:36:02.661Z,100958.84
2022-09-06T02:36:43.590Z,100956.84
2022-09-06T02:37:26.088Z,100969.88
2022-09-06T02:38:06.690Z,100963.19
2022-09-06T02:38:47.694Z,100966.63
2022-09-06T02:39:28.627Z,100962.91
2022-09-06T02:40:08.968Z,100970.19
2022-09-06T02:40:49.619Z,100962.44
2022-09-06T02:41:31.031Z,100953.13
2022-09-06T02:42:11.603Z,100970.88
2022-09-06T02:42:51.741Z,100963.81
2022-09-06T02:43:32.613Z,100962.81
2022-09-06T02:44:12.712Z,100965.31
2022-09-06T02:44:53.577Z,100965.94
2022-09-06T02:45:47.634Z,100948.78
2022-09-06T02:46:41.582Z,100955.53
2022-09-06T02:47:35.576Z,100942.09
2022-09-06T02:48:29.596Z,100966.41
2022-09-06T02:49:10.604Z,100956.84
2022-09-06T02:49:50.665Z,100963.38
2022-09-06T02:50:30.575Z,100974.41
2022-09-06T02:51:12.680Z,100948.78
2022-09-06T02:51:53.611Z,100964.94
2022-09-06T02:52:33.664Z,100933.28
2022-09-06T02:53:17.585Z,100941.75
2022-09-06T02:53:57.635Z,100959.34
2022-09-06T02:54:38.619Z,100950.66
2022-09-06T02:55:18.670Z,100952.75
2022-09-06T02:55:58.588Z,100951.81
2022-09-06T02:56:39.887Z,100956.94
2022-09-06T02:57:19.568Z,100961.66
2022-09-06T02:57:59.648Z,100944.56
2022-09-06T02:58:39.577Z,100962.50
2022-09-06T02:59:19.642Z,100968.41
2022-09-06T03:00:00.611Z,100959.66
2022-09-06T03:00:41.633Z,100957.94
2022-09-06T03:01:21.631Z,100960.50
2022-09-06T03:02:01.676Z,100961.66
2022-09-06T03:02:41.604Z,100950.72
2022-09-06T03:03:21.613Z,100960.91
2022-09-06T03:04:02.567Z,100945.28
2022-09-06T03:04:42.627Z,100943.25
2022-09-06T03:05:23.604Z,100948.94
2022-09-06T03:06:03.636Z,100941.25
2022-09-06T03:06:43.569Z,100961.25
2022-09-06T03:07:23.705Z,100958.47
2022-09-06T03:08:04.561Z,100938.16
2022-09-06T03:08:44.621Z,100967.94
2022-09-06T03:09:24.551Z,100953.75
2022-09-06T03:10:05.491Z,100936.28
2022-09-06T03:10:46.615Z,100956.06
2022-09-06T03:11:26.647Z,100945.75
2022-09-06T03:12:06.576Z,100948.22
2022-09-06T03:12:48.628Z,100962.81
2022-09-06T03:13:30.564Z,100927.13
2022-09-06T03:14:10.729Z,100953.91
2022-09-06T03:14:54.727Z,100946.63
2022-09-06T03:15:35.618Z,100958.84
2022-09-06T03:16:16.669Z,100950.25
2022-09-06T03:16:56.913Z,100965.22
2022-09-06T03:17:37.554Z,100957.84
2022-09-06T03:18:18.644Z,100954.63
2022-09-06T03:18:58.568Z,100943.75
2022-09-06T03:19:38.620Z,100955.81
2022-09-06T03:20:19.576Z,100945.75
2022-09-06T03:21:00.640Z,100940.66
2022-09-06T03:21:41.589Z,100949.19
2022-09-06T03:22:21.669Z,100948.47
2022-09-06T03:23:02.544Z,100962.03
2022-09-06T03:23:42.609Z,100959.78
2022-09-06T03:24:22.544Z,100944.03
2022-09-06T03:25:02.621Z,100955.06
2022-09-06T03:25:43.553Z,100936.03
2022-09-06T03:26:23.689Z,100963.50
2022-09-06T03:27:04.587Z,100951.72
2022-09-06T03:27:44.608Z,100959.25
2022-09-06T03:28:25.599Z,100963.44
2022-09-06T03:29:06.045Z,100952.44
2022-09-06T03:29:45.547Z,100959.47
2022-09-06T03:30:25.608Z,100960.03
2022-09-06T03:31:06.584Z,100954.03
2022-09-06T03:31:46.635Z,100958.00
2022-09-06T03:32:27.568Z,100961.44
2022-09-06T03:33:07.628Z,100961.63
2022-09-06T03:33:47.561Z,100968.78
2022-09-06T03:34:27.640Z,100941.44
2022-09-06T03:35:08.537Z,100965.56
2022-09-06T03:36:01.613Z,100955.97
2022-09-06T03:36:41.543Z,100956.09
2022-09-06T03:37:21.601Z,100957.66
2022-09-06T03:38:02.581Z,100947.88
2022-09-06T03:38:42.609Z,100950.44
2022-09-06T03:39:22.552Z,100952.50
2022-09-06T03:40:02.747Z,100963.34
2022-09-06T03:40:42.568Z,100951.81
2022-09-06T03:41:22.634Z,100951.31
2022-09-06T03:42:02.520Z,100944.78
2022-09-06T03:42:42.586Z,100945.44
2022-09-06T03:43:24.629Z,100957.47
2022-09-06T03:44:04.575Z,100944.31
2022-09-06T03:44:44.540Z,100945.41
2022-09-06T03:45:24.620Z,100944.22
2022-09-06T03:46:05.588Z,100949.25
2022-09-06T03:46:46.285Z,100953.31
2022-09-06T03:47:27.529Z,100947.13
2022-09-06T03:48:07.642Z,100960.31
2022-09-06T03:48:48.574Z,100947.03
2022-09-06T03:49:28.619Z,100939.97
2022-09-06T03:50:08.525Z,100940.41
2022-09-06T03:50:56.625Z,100941.28
2022-09-06T03:51:36.528Z,100947.19
2022-09-06T03:52:16.609Z,100948.19
2022-09-06T03:52:57.537Z,100944.38
2022-09-06T03:53:37.608Z,100936.97
2022-09-06T03:54:18.552Z,100949.53
2022-09-06T03:54:58.590Z,100936.47
2022-09-06T03:55:38.515Z,100946.47
2022-09-06T03:56:18.584Z,100940.81
2022-09-06T03:56:58.526Z,100930.47
2022-09-06T03:57:38.640Z,100939.66
2022-09-06T03:58:19.527Z,100940.41
2022-09-06T03:58:59.737Z,100947.56
2022-09-06T03:59:40.565Z,100938.28
2022-09-06T04:00:21.570Z,100931.53
2022-09-06T04:01:13.574Z,100940.81
2022-09-06T04:01:53.591Z,100939.59
2022-09-06T04:02:33.584Z,100947.59
2022-09-06T04:03:13.582Z,100941.31
2022-09-06T04:03:54.518Z,100944.06
2022-09-06T04:04:34.612Z,100948.13
2022-09-06T04:05:15.580Z,100941.56
2022-09-06T04:05:55.628Z,100950.69
2022-09-06T04:06:35.529Z,100942.81
2022-09-06T04:07:15.570Z,100946.41
2022-09-06T04:07:55.525Z,100930.53
2022-09-06T04:08:35.605Z,100938.28
2022-09-06T04:09:15.496Z,100935.19
2022-09-06T04:09:55.587Z,100931.53
2022-09-06T04:10:36.542Z,100931.25
2022-09-06T04:11:17.490Z,100937.53
2022-09-06T04:11:58.517Z,100933.47
2022-09-06T04:12:38.603Z,100942.09
2022-09-06T04:13:18.509Z,100929.16
2022-09-06T04:13:58.569Z,100931.72
2022-09-06T04:14:44.501Z,100937.78
2022-09-06T04:15:24.565Z,100926.56
2022-09-06T04:16:05.540Z,100923.63
2022-09-06T04:16:46.668Z,100931.00
2022-09-06T04:17:26.518Z,100937.31
2022-09-06T04:18:09.210Z,100923.75
2022-09-06T04:18:49.497Z,100927.47
2022-09-06T04:19:29.620Z,100928.91
2022-09-06T04:20:11.529Z,100930.25
2022-09-06T04:20:58.377Z,100933.81
2022-09-06T04:21:39.538Z,100924.34
2022-09-06T04:22:19.565Z,100930.38
2022-09-06T04:23:00.522Z,100939.13
2022-09-06T04:23:40.597Z,100940.38
2022-09-06T04:24:20.518Z,100938.66
2022-09-06T04:25:01.406Z,100941.38
2022-09-06T04:25:41.488Z,100927.84
2022-09-06T04:26:21.601Z,100926.50
2022-09-06T04:27:02.537Z,100937.41
2022-09-06T04:27:42.565Z,100923.94
2022-09-06T04:28:27.456Z,100940.91
2022-09-06T04:29:09.533Z,100943.63
2022-09-06T04:29:50.525Z,100945.34
2022-09-06T04:30:30.636Z,100953.97
2022-09-06T04:31:11.501Z,100951.97
2022-09-06T04:31:51.655Z,100936.59
2022-09-06T04:32:32.553Z,100940.66
2022-09-06T04:33:12.557Z,100948.78
2022-09-06T04:33:52.480Z,100952.09
2022-09-06T04:34:33.253Z,100952.72
2022-09-06T04:35:14.478Z,100959.34
2022-09-06T04:36:00.569Z,100941.13
2022-09-06T04:36:40.501Z,100949.75
2022-09-06T04:37:20.562Z,100930.91
2022-09-06T04:38:01.542Z,100943.94
2022-09-06T04:38:46.665Z,100940.75
2022-09-06T04:39:26.538Z,100953.41
2022-09-06T04:40:06.611Z,100937.78
2022-09-06T04:40:46.475Z,100957.59
2022-09-06T04:41:26.559Z,100945.28
2022-09-06T04:42:06.475Z,100947.00
2022-09-06T04:42:46.521Z,100959.31
2022-09-06T04:43:27.578Z,100950.69
2022-09-06T04:44:07.564Z,100950.84
2022-09-06T04:44:48.481Z,100941.47
2022-09-06T04:45:28.656Z,100946.03
2022-09-06T04:46:34.491Z,100956.50
2022-09-06T04:47:21.527Z,100959.38
2022-09-06T04:48:01.468Z,100948.88
2022-09-06T04:48:41.503Z,100954.16
2022-09-06T04:49:15.525Z,100955.78
2022-09-06T04:50:02.497Z,100960.81
2022-09-06T04:50:36.563Z,100958.97
2022-09-06T04:51:24.510Z,100954.66
2022-09-06T04:51:58.529Z,100951.44
2022-09-06T04:52:45.478Z,100950.72
2022-09-06T04:53:19.632Z,100945.81
2022-09-06T04:54:06.490Z,100953.19
2022-09-06T04:54:40.540Z,100952.31
2022-09-06T04:55:27.455Z,100954.13
2022-09-06T04:56:04.544Z,100938.66
2022-09-06T04:56:51.467Z,100959.06
2022-09-06T04:57:25.601Z,100954.66
2022-09-06T04:58:13.477Z,100958.09
2022-09-06T04:58:47.564Z,100948.38
2022-09-06T04:59:28.488Z,100969.66
2022-09-06T05:00:08.552Z,100954.66
2022-09-06T05:00:51.481Z,100953.53
2022-09-06T05:01:31.625Z,100943.09
2022-09-06T05:02:11.490Z,100963.25
2022-09-06T05:02:51.558Z,100960.16
2022-09-06T05:03:31.499Z,100945.66
2022-09-06T05:04:11.582Z,100954.88
2022-09-06T05:04:52.497Z,100953.59
2022-09-06T05:05:46.468Z,100960.78
2022-09-06T05:06:40.453Z,100966.06
2022-09-06T05:07:34.454Z,100959.78
2022-09-06T05:08:28.529Z,100967.06
2022-09-06T05:09:23.465Z,100948.69
2022-09-06T05:10:11.487Z,100956.78
2022-09-06T05:10:45.517Z,100967.63
2022-09-06T05:11:32.473Z,100969.84
2022-09-06T05:12:06.519Z,100962.22
2022-09-06T05:12:58.456Z,100949.19
2022-09-06T05:13:32.522Z,100940.81
2022-09-06T05:14:19.451Z,100955.78
2022-09-06T05:14:53.504Z,100959.75
2022-09-06T05:15:34.492Z,100943.38
2022-09-06T05:16:15.586Z,100956.78
2022-09-06T05:16:56.498Z,100964.41
2022-09-06T05:17:37.580Z,100959.50
2022-09-06T05:18:17.465Z,100956.06
2022-09-06T05:18:57.509Z,100957.25
2022-09-06T05:19:37.431Z,100956.16
2022-09-06T05:20:18.546Z,100951.25
2022-09-06T05:21:00.466Z,100963.41
2022-09-06T05:21:41.049Z,100967.59
2022-09-06T05:22:21.461Z,100956.00
2022-09-06T05:23:01.694Z,100963.28
2022-09-06T05:23:41.469Z,100955.72
2022-09-06T05:24:21.509Z,100960.44
2022-09-06T05:25:01.449Z,100957.06
2022-09-06T05:25:41.516Z,100954.50
2022-09-06T05:26:22.474Z,100952.78
2022-09-06T05:27:04.403Z,100964.81
2022-09-06T05:27:44.438Z,100958.66
2022-09-06T05:28:25.641Z,100960.38
2022-09-06T05:29:05.444Z,100963.81
2022-09-06T05:29:46.564Z,100947.97
2022-09-06T05:30:26.448Z,100949.06
2022-09-06T05:31:36.494Z,100949.53
2022-09-06T05:32:30.433Z,100946.09
2022-09-06T05:33:35.422Z,100965.28
2022-09-06T05:34:29.449Z,100948.53
2022-09-06T05:35:23.468Z,100964.13
2022-09-06T05:36:21.448Z,100948.00
2022-09-06T05:37:02.501Z,100955.59
2022-09-06T05:37:42.508Z,100958.78
2022-09-06T05:38:22.456Z,100947.47
2022-09-06T05:39:03.506Z,100944.97
2022-09-06T05:39:43.459Z,100940.09
2022-09-06T05:40:23.489Z,100957.53
2022-09-06T05:41:03.428Z,100954.69
2022-09-06T05:41:44.084Z,100955.28
2022-09-06T05:42:24.473Z,100966.72
2022-09-06T05:43:04.519Z,100942.13
2022-09-06T05:43:44.428Z,100961.91
2022-09-06T05:44:24.599Z,100962.91
2022-09-06T05:45:04.422Z,100953.28
2022-09-06T05:45:45.344Z,100960.91
2022-09-06T05:46:26.430Z,100959.56
2022-09-06T05:47:06.536Z,100958.47
2022-09-06T05:47:46.507Z,100975.94
2022-09-06T05:48:26.521Z,100971.09
2022-09-06T05:49:11.435Z,100970.97
2022-09-06T05:49:57.353Z,100980.09
2022-09-06T05:50:37.410Z,100978.91
2022-09-06T05:51:31.424Z,100975.94
2022-09-06T05:52:26.425Z,100977.41
2022-09-06T05:53:06.441Z,100976.66
2022-09-06T05:53:51.502Z,100981.81
2022-09-06T05:54:31.433Z,100978.81
2022-09-06T05:55:12.561Z,100973.41
2022-09-06T05:55:52.432Z,100972.84
2022-09-06T05:56:32.521Z,100980.47
2022-09-06T05:57:12.412Z,100971.88
2022-09-06T05:57:52.511Z,100975.03
2022-09-06T05:58:32.448Z,100974.91
2022-09-06T05:59:12.468Z,100960.28
2022-09-06T05:59:52.402Z,100965.72
2022-09-06T06:00:32.490Z,100963.13
2022-09-06T06:01:29.489Z,100973.31
2022-09-06T06:02:09.632Z,100965.47
2022-09-06T06:02:49.458Z,100970.34
2022-09-06T06:03:29.475Z,100955.91
2022-09-06T06:04:11.428Z,100962.75
2022-09-06T06:04:52.094Z,100964.22
2022-09-06T06:05:32.402Z,100956.06
2022-09-06T06:06:12.473Z,100948.06
2022-09-06T06:06:53.398Z,100947.38
2022-09-06T06:07:33.508Z,100956.97
2022-09-06T06:08:13.401Z,100965.00
2022-09-06T06:08:53.496Z,100951.84
2022-09-06T06:09:34.428Z,100957.28
2022-09-06T06:10:16.070Z,100949.28
2022-09-06T06:10:56.415Z,100946.72
2022-09-06T06:11:37.553Z,100955.06
2022-09-06T06:12:17.399Z,100944.72
2022-09-06T06:12:57.657Z,100959.94
2022-09-06T06:13:41.386Z,100964.09
2022-09-06T06:14:21.486Z,100957.06
2022-09-06T06:15:02.459Z,100963.69
2022-09-06T06:15:44.477Z,100960.84
2022-09-06T06:16:28.474Z,100962.56
2022-09-06T06:17:09.522Z,100964.25
2022-09-06T06:17:49.398Z,100963.69
2022-09-06T06:18:29.613Z,100966.53
2022-09-06T06:19:09.391Z,100944.34
2022-09-06T06:19:49.523Z,100967.13
2022-09-06T06:20:30.439Z,100956.41
2022-09-06T06:21:24.518Z,100960.69
2022-09-06T06:22:05.396Z,100948.81
2022-09-06T06:22:45.474Z,100952.69
2022-09-06T06:23:25.397Z,100965.41
2022-09-06T06:24:08.457Z,100961.44
2022-09-06T06:24:49.380Z,100964.84
2022-09-06T06:25:29.454Z,100949.41
2022-09-06T06:26:10.416Z,100957.44
2022-09-06T06:26:50.447Z,100957.16
2022-09-06T06:27:30.401Z,100946.56
2022-09-06T06:28:10.496Z,100951.00
2022-09-06T06:28:50.394Z,100951.88
2022-09-06T06:29:30.460Z,100948.56
2022-09-06T06:30:15.236Z,100945.00
2022-09-06T06:30:58.465Z,100947.88
2022-09-06T06:31:40.448Z,100949.16
2022-09-06T06:32:20.446Z,100934.44
2022-09-06T06:33:00.374Z,100953.31
2022-09-06T06:33:41.592Z,100952.44
2022-09-06T06:34:22.381Z,100954.03
2022-09-06T06:35:02.519Z,100960.19
2022-09-06T06:35:42.389Z,100956.03
2022-09-06T06:36:22.574Z,100970.22
2022-09-06T06:37:03.408Z,100967.38
2022-09-06T06:37:44.614Z,100954.91
2022-09-06T06:38:24.383Z,100953.06
2022-09-06T06:39:05.526Z,100963.22
2022-09-06T06:39:45.414Z,100956.91
2022-09-06T06:40:25.463Z,100945.19
2022-09-06T06:41:07.196Z,100951.75
2022-09-06T06:41:49.192Z,100955.19
2022-09-06T06:42:30.405Z,100959.34
2022-09-06T06:43:11.443Z,100956.38
2022-09-06T06:43:52.378Z,100954.94
2022-09-06T06:44:32.428Z,100942.31
2022-09-06T06:45:13.373Z,100951.63
2022-09-06T06:45:56.458Z,100958.09
2022-09-06T06:46:40.398Z,100959.38
2022-09-06T06:47:20.473Z,100948.59
2022-09-06T06:48:01.476Z,100950.47
2022-09-06T06:48:45.501Z,100951.75
2022-09-06T06:49:25.361Z,100961.25
2022-09-06T06:50:05.442Z,100957.22
2022-09-06T06:50:45.361Z,100956.94
2022-09-06T06:51:28.214Z,100954.34
2022-09-06T06:52:09.395Z,100954.94
2022-09-06T06:52:49.395Z,100944.47
2022-09-06T06:53:30.412Z,100954.50
2022-09-06T06:54:12.508Z,100939.63
2022-09-06T06:54:53.407Z,100952.34
2022-09-06T06:55:33.421Z,100948.31
2022-09-06T06:56:42.351Z,100953.47
2022-09-06T06:57:22.425Z,100950.16
2022-09-06T06:58:02.340Z,100944.84
2022-09-06T06:58:49.453Z,100935.41
2022-09-06T06:59:44.387Z,100946.72
2022-09-06T07:00:38.381Z,100930.66
2022-09-06T07:01:34.522Z,100946.72
2022-09-06T07:02:28.464Z,100937.09
2022-09-06T07:03:24.350Z,100940.81
2022-09-06T07:04:12.391Z,100937.09
2022-09-06T07:04:46.425Z,100936.09
2022-09-06T07:07:38.039Z,100941.41
2022-09-06T07:08:14.432Z,100934.97
2022-09-06T07:09:04.340Z,100944.09
2022-09-06T07:10:59.348Z,100926.75
2022-09-06T07:11:53.332Z,100937.59
2022-09-06T07:12:47.371Z,100937.00
2022-09-06T07:13:41.364Z,100937.00
2022-09-06T07:14:35.350Z,100941.59
2022-09-06T07:15:16.380Z,100937.00
2022-09-06T07:15:57.038Z,100946.44
2022-09-06T07:16:38.394Z,100941.00
2022-09-06T07:17:18.412Z,100924.41
2022-09-06T07:17:59.343Z,100944.13
2022-09-06T07:18:42.387Z,100946.41
2022-09-06T07:20:29.790Z,100945.56
2022-09-06T07:22:30.363Z,100942.94
2022-09-06T07:24:38.351Z,100943.19
2022-09-06T07:25:32.358Z,100951.63
2022-09-06T07:26:35.426Z,100930.03
2022-09-06T07:28:43.550Z,100938.56
2022-09-06T07:29:39.335Z,100951.72
2022-09-06T07:30:33.355Z,100936.53
2022-09-06T07:32:42.342Z,100949.31
2022-09-06T07:33:37.346Z,100947.66
2022-09-06T07:34:32.331Z,100950.94
2022-09-06T07:35:27.364Z,100932.19
2022-09-06T07:36:11.480Z,100950.38
2022-09-06T07:36:52.460Z,100946.31
2022-09-06T07:37:32.312Z,100922.56
2022-09-06T07:38:12.410Z,100936.00
2022-09-06T07:38:57.334Z,100938.28
2022-09-06T07:39:37.453Z,100932.50
2022-09-06T07:40:18.335Z,100938.38
2022-09-06T07:41:04.437Z,100942.19
2022-09-06T07:41:44.356Z,100927.88
2022-09-06T07:42:24.373Z,100943.31
2022-09-06T07:43:07.318Z,100943.31
2022-09-06T07:43:47.561Z,100937.88
2022-09-06T07:44:27.302Z,100935.28
2022-09-06T07:45:07.469Z,100932.09
2022-09-06T07:45:48.329Z,100948.16
2022-09-06T07:46:28.404Z,100947.22
2022-09-06T07:48:12.374Z,100947.63
2022-09-06T07:48:53.320Z,100930.63
2022-09-06T07:49:34.835Z,100952.06
2022-09-06T07:51:19.433Z,100942.94
2022-09-06T07:51:59.438Z,100938.19
2022-09-06T07:53:33.652Z,100935.38
2022-09-06T07:54:36.628Z,100951.13
2022-09-06T07:55:11.395Z,100940.91
2022-09-06T07:55:58.308Z,100929.31
2022-09-06T07:56:32.368Z,100936.47
2022-09-06T07:57:19.306Z,100937.56
2022-09-06T07:58:00.334Z,100923.53
2022-09-06T07:58:54.339Z,100935.59
2022-09-06T07:59:48.353Z,100930.16
2022-09-06T08:00:42.377Z,100930.53
2022-09-06T08:01:49.417Z,100937.94
2022-09-06T08:02:43.297Z,100931.94
2022-09-06T08:03:23.410Z,100928.13
2022-09-06T08:04:13.877Z,100929.91
2022-09-06T08:04:54.330Z,100923.38
2022-09-06T08:09:23.976Z,100930.50
2022-09-06T08:10:04.305Z,100910.97
2022-09-06T08:10:44.392Z,100930.19
2022-09-06T08:11:25.300Z,100930.19
2022-09-06T08:12:07.423Z,100938.78
2022-09-06T08:12:47.292Z,100922.38
2022-09-06T08:13:34.322Z,100921.75
2022-09-06T08:14:28.296Z,100914.03
2022-09-06T08:15:23.289Z,100921.03
2022-09-06T08:16:23.374Z,100927.22
2022-09-06T08:17:17.297Z,100932.69
2022-09-06T08:18:11.341Z,100913.34
2022-09-06T08:19:01.322Z,100914.34
2022-09-06T08:19:35.411Z,100936.00
2022-09-06T08:20:23.280Z,100929.50
2022-09-06T08:20:57.399Z,100932.78
2022-09-06T08:21:45.307Z,100929.72
2022-09-06T08:22:19.353Z,100933.13
2022-09-06T08:23:08.270Z,100930.41
2022-09-06T08:23:42.790Z,100924.06
2022-09-06T08:24:23.329Z,100928.03
2022-09-06T08:25:03.377Z,100916.38
2022-09-06T08:25:44.310Z,100922.38
2022-09-06T08:26:27.412Z,100920.19
2022-09-06T08:27:08.304Z,100912.16
2022-09-06T08:27:48.350Z,100925.66
2022-09-06T08:28:29.003Z,100913.03
2022-09-06T08:29:12.389Z,100916.13
2022-09-06T08:29:52.321Z,100908.63
2022-09-06T08:30:32.369Z,100902.47
2022-09-06T08:31:22.414Z,100903.81
2022-09-06T08:32:02.428Z,100919.75
2022-09-06T08:32:43.284Z,100910.38
2022-09-06T08:33:25.662Z,100913.13
2022-09-06T08:34:07.276Z,100905.59
2022-09-06T08:34:47.339Z,100903.88
2022-09-06T08:35:27.293Z,100915.59
2022-09-06T08:36:07.383Z,100910.47
2022-09-06T08:36:48.270Z,100905.34
2022-09-06T08:37:28.349Z,100913.72
2022-09-06T08:38:08.277Z,100914.56
2022-09-06T08:38:48.386Z,100909.66
2022-09-06T08:39:28.301Z,100903.13
2022-09-06T08:40:09.414Z,100918.03
2022-09-06T08:40:49.294Z,100904.00
2022-09-06T08:42:05.394Z,100910.84
2022-09-06T08:42:46.274Z,100882.78
2022-09-06T08:43:28.535Z,100900.06
2022-09-06T08:45:15.360Z,100900.59
2022-09-06T08:46:03.308Z,100902.34
2022-09-06T08:46:52.407Z,100903.03
2022-09-06T08:47:32.269Z,100902.88
2022-09-06T08:48:12.331Z,100898.75